Time;durP1;ratioP1;P1;durP2;ratioP2;P2;SDS_P1;SDS_P2;PMS_P1;PMS_P2;Temp;Humidity;BMP_temperature;BMP_pressure;BME280_temperature;BME280_humidity;BME280_pressure;Samples;Min_cycle;Max_cycle;Signal;HPM_P1;HPM_P2
2023/08/28 00:04:32;;;;;;;0.10;0.10;;;;;;;-145.06;100.00;40167.47;10448301;28;20500;-64
2023/08/28 00:09:34;;;;;;;0.10;0.10;;;;;;;-145.06;100.00;40181.59;10446725;28;20044;-64
2023/08/28 00:14:34;;;;;;;0.10;0.10;;;;;;;-145.06;100.00;40155.34;10455880;28;20486;-64
2023/08/28 00:19:35;;;;;;;0.10;0.10;;;;;;;-145.06;100.00;40183.59;10458041;28;20035;-64
2023/08/28 00:24:35;;;;;;;0.05;0.05;;;;;;;-145.06;100.00;40181.59;10464518;28;20098;-64
2023/08/28 00:29:35;;;;;;;0.05;0.05;;;;;;;-145.06;100.00;40181.59;10456357;28;20041;-64
2023/08/28 00:34:35;;;;;;;0.10;0.10;;;;;;;-145.06;100.00;40173.50;10448847;28;20041;-64
2023/08/28 00:39:36;;;;;;;0.10;0.10;;;;;;;-145.06;100.00;40153.34;10456276;28;20037;-66
2023/08/28 00:44:36;;;;;;;0.10;0.10;;;;;;;-145.06;100.00;40173.50;10448005;28;20032;-64
2023/08/28 00:49:36;;;;;;;0.10;0.10;;;;;;;-145.06;100.00;40169.47;10456021;28;20516;-66
2023/08/28 00:54:40;;;;;;;0.03;0.03;;;;;;;-145.06;100.00;40197.72;10464079;28;20547;-66
2023/08/28 00:59:43;;;;;;;0.10;0.10;;;;;;;-145.06;100.00;40221.94;10441550;28;20044;-66
2023/08/28 01:04:43;;;;;;;0.10;0.10;;;;;;;-145.06;100.00;40169.47;10456464;28;20048;-63
2023/08/28 01:09:50;;;;;;;0.08;0.08;;;;;;;-145.06;100.00;40181.59;10442673;28;20033;-64
2023/08/28 01:15:08;;;;;;;0.10;0.10;;;;;;;-145.06;100.00;40167.47;10437639;28;20068;-64
2023/08/28 01:20:15;;;;;;;0.10;0.10;;;;;;;-145.06;100.00;40189.66;10441003;28;20029;-66
2023/08/28 01:25:17;;;;;;;0.10;0.10;;;;;;;-145.06;100.00;40181.59;10446681;28;20065;-64
2023/08/28 01:30:18;;;;;;;0.10;0.10;;;;;;;-145.06;100.00;40177.56;10440093;28;20436;-65
2023/08/28 01:35:21;;;;;;;0.10;0.10;;;;;;;-145.06;100.00;40171.50;10457453;28;20048;-66
2023/08/28 01:40:29;;;;;;;0.10;0.10;;;;;;;-145.06;100.00;40110.94;10454692;28;20033;-65
2023/08/28 01:45:30;;;;;;;0.10;0.10;;;;;;;-145.06;100.00;40096.81;10444545;28;20378;-64
2023/08/28 01:50:30;;;;;;;0.10;0.10;;;;;;;-145.06;100.00;40141.22;10442642;28;20033;-65
2023/08/28 01:55:45;;;;;;;0.10;0.10;;;;;;;-145.06;100.00;40117.00;10440888;28;20489;-65
2023/08/28 02:00:46;;;;;;;0.10;0.10;;;;;;;-145.06;100.00;40112.97;10456434;28;20128;-65
2023/08/28 02:05:46;;;;;;;0.10;0.10;;;;;;;-145.06;100.00;40141.22;10453063;28;20112;-66
2023/08/28 02:10:46;;;;;;;0.08;0.08;;;;;;;-145.06;100.00;40115.00;10451613;28;20436;-66
2023/08/28 02:15:47;;;;;;;0.10;0.10;;;;;;;-145.06;100.00;40119.03;10460270;28;20087;-66
2023/08/28 02:20:48;;;;;;;0.10;0.10;;;;;;;-145.06;100.00;40141.22;10448687;28;20274;-64
2023/08/28 02:25:49;;;;;;;0.10;0.10;;;;;;;-145.06;100.00;40121.03;10446688;28;20033;-66
2023/08/28 02:30:49;;;;;;;0.10;0.10;;;;;;;-145.06;100.00;40121.03;10452066;28;20452;-66
2023/08/28 02:35:49;;;;;;;0.10;0.10;;;;;;;-145.06;100.00;40135.16;10459571;28;20333;-66
2023/08/28 02:40:49;;;;;;;0.10;0.10;;;;;;;-145.06;100.00;40102.88;10449574;28;20037;-66
2023/08/28 02:45:50;;;;;;;0.10;0.10;;;;;;;-145.06;100.00;40123.06;10455252;28;20025;-66
2023/08/28 02:50:50;;;;;;;0.10;0.10;;;;;;;-145.06;100.00;40131.13;10446248;28;20021;-66
2023/08/28 02:56:26;;;;;;;0.10;0.10;;;;;;;-145.06;100.00;40112.97;10457247;28;20037;-66
2023/08/28 03:01:26;;;;;;;0.10;0.10;;;;;;;-145.06;100.00;40112.97;10455513;28;20380;-66
2023/08/28 03:06:27;;;;;;;0.10;0.10;;;;;;;-145.06;100.00;40100.88;10460026;28;20121;-67
2023/08/28 03:11:27;;;;;;;0.10;0.10;;;;;;;-145.06;100.00;40080.69;10462336;28;20453;-66
2023/08/28 03:16:27;;;;;;;0.10;0.10;;;;;;;-145.06;100.00;40112.97;10455278;28;20033;-66
2023/08/28 03:21:28;;;;;;;0.10;0.10;;;;;;;-145.06;100.00;40121.03;10450734;28;20025;-66
2023/08/28 03:26:29;;;;;;;0.10;0.10;;;;;;;-145.06;100.00;40112.97;10451399;28;20041;-66
2023/08/28 03:31:30;;;;;;;0.10;0.10;;;;;;;-145.06;100.00;40175.53;10450798;28;20286;-66
2023/08/28 03:36:30;;;;;;;0.10;0.10;;;;;;;-145.06;100.00;40131.13;10452314;28;20508;-66
2023/08/28 03:41:30;;;;;;;0.10;0.10;;;;;;;-145.06;100.00;40092.78;10436201;28;20029;-67
2023/08/28 03:46:31;;;;;;;0.10;0.10;;;;;;;-145.06;100.00;40078.66;10450343;28;20728;-65
2023/08/28 03:51:31;;;;;;;0.10;0.10;;;;;;;-145.06;100.00;40098.84;10447899;28;20033;-65
2023/08/28 03:56:31;;;;;;;0.20;0.20;;;;;;;-145.06;100.00;40088.75;10448198;28;20037;-67
2023/08/28 04:01:31;;;;;;;0.10;0.10;;;;;;;-145.06;100.00;40104.91;10421192;28;20061;-67
2023/08/28 04:06:32;;;;;;;0.10;0.10;;;;;;;-145.06;100.00;40131.13;10436014;28;20275;-67
2023/08/28 04:11:32;;;;;;;0.10;0.10;;;;;;;-145.06;100.00;40112.97;10445510;28;20029;-67
2023/08/28 04:16:32;;;;;;;0.10;0.10;;;;;;;-145.06;100.00;40117.00;10443214;28;20048;-67
2023/08/28 04:21:33;;;;;;;0.10;0.10;;;;;;;-145.06;100.00;40149.28;10444362;28;20032;-67
2023/08/28 04:26:33;;;;;;;0.10;0.10;;;;;;;-145.06;100.00;40137.19;10429903;28;20106;-67
2023/08/28 04:31:33;;;;;;;0.10;0.10;;;;;;;-145.06;100.00;40153.34;10421431;28;20037;-66
2023/08/28 04:36:33;;;;;;;0.10;0.10;;;;;;;-145.06;100.00;40110.94;10440764;28;20040;-67
2023/08/28 04:41:34;;;;;;;0.10;0.10;;;;;;;-145.06;100.00;40139.22;10446569;28;20025;-66
2023/08/28 04:46:34;;;;;;;0.10;0.10;;;;;;;-145.06;100.00;40100.88;10449625;28;20037;-67
2023/08/28 04:51:34;;;;;;;0.10;0.10;;;;;;;-145.06;100.00;40133.16;10442197;28;20037;-67
2023/08/28 04:56:35;;;;;;;0.10;0.10;;;;;;;-145.06;100.00;40100.88;10446761;28;20788;-67
2023/08/28 05:01:35;;;;;;;0.10;0.10;;;;;;;-145.06;100.00;40016.09;10425265;28;20083;-65
2023/08/28 05:06:35;;;;;;;0.10;0.10;;;;;;;-145.06;100.00;39943.44;10489534;22;20311;-64
2023/08/28 05:11:36;;;;;;;0.10;0.10;;;;;;;-145.06;100.00;40028.22;10511603;28;20035;-65
2023/08/28 05:16:36;;;;;;;0.00;0.00;;;;;;;-145.06;100.00;39895.03;10519749;28;20038;-65
2023/08/28 05:21:36;;;;;;;0.10;0.10;;;;;;;-145.06;100.00;39765.88;10523442;28;20069;-65
2023/08/28 05:26:37;;;;;;;0.10;0.10;;;;;;;-145.06;100.00;39642.78;10507215;28;20028;-65
2023/08/28 05:31:37;;;;;;;0.10;0.10;;;;;;;-145.06;97.18;39521.72;10525095;28;20028;-66
2023/08/28 05:36:37;;;;;;;0.10;0.10;;;;;;;-145.06;92.27;39422.84;10527842;28;20035;-65
2023/08/28 05:41:37;;;;;;;0.10;0.10;;;;;;;-145.06;87.07;39315.91;10531417;28;20020;-66
2023/08/28 05:46:38;;;;;;;0.00;0.00;;;;;;;-145.06;81.54;39174.66;10537209;28;20023;-66
2023/08/28 05:51:38;;;;;;;0.00;0.00;;;;;;;-145.06;77.99;38983.00;10540293;28;20488;-66
2023/08/28 05:56:38;;;;;;;0.10;0.10;;;;;;;-145.06;71.62;38861.94;10535248;28;20138;-66
2023/08/28 06:01:39;;;;;;;0.00;0.00;;;;;;;-145.06;69.41;38755.03;10533319;28;20021;-66
2023/08/28 06:06:39;;;;;;;0.10;0.10;;;;;;;-145.06;65.70;38565.41;10533176;28;20464;-67
2023/08/28 06:11:41;;;;;;;0.10;0.10;;;;;;;-145.06;64.36;38440.31;10527993;28;20443;-66
2023/08/28 06:16:41;;;;;;;0.10;0.10;;;;;;;-145.06;59.12;38232.56;10532542;28;20435;-67
2023/08/28 06:21:44;;;;;;;0.10;0.10;;;;;;;-145.06;58.62;38137.75;10540509;28;20077;-67
2023/08/28 06:26:45;;;;;;;0.10;0.10;;;;;;;-145.06;56.68;38036.91;10516698;28;20169;-67
2023/08/28 06:31:45;;;;;;;0.00;0.00;;;;;;;-145.06;55.79;37930.00;10529736;28;20112;-67
2023/08/28 06:36:45;;;;;;;0.10;0.10;;;;;;;-145.06;54.58;37911.84;10534712;28;20473;-66
2023/08/28 06:41:46;;;;;;;0.10;0.10;;;;;;;-145.06;53.86;37815.03;10532051;28;20122;-67
2023/08/28 06:46:46;;;;;;;0.00;0.00;;;;;;;-145.06;53.00;37748.47;10534226;28;20047;-67
2023/08/28 06:51:47;;;;;;;0.10;0.10;;;;;;;-145.06;51.81;37720.22;10515659;28;20035;-67
2023/08/28 06:56:47;;;;;;;0.00;0.00;;;;;;;-145.06;49.90;37643.59;10531895;28;20028;-67
2023/08/28 07:01:47;;;;;;;0.10;0.10;;;;;;;-145.06;50.59;37712.16;10533921;28;20032;-67
2023/08/28 07:06:48;;;;;;;0.10;0.10;;;;;;;-145.06;51.09;37736.38;10533791;28;20035;-67
2023/08/28 07:11:48;;;;;;;0.10;0.10;;;;;;;-145.06;51.54;37579.06;10529218;28;20028;-67
2023/08/28 07:16:48;;;;;;;0.05;0.05;;;;;;;-145.06;50.46;37536.69;10526823;28;20024;-65
2023/08/28 07:21:49;;;;;;;0.10;0.10;;;;;;;-145.06;51.03;37478.22;10529386;28;20527;-65
2023/08/28 07:26:49;;;;;;;0.10;0.10;;;;;;;-145.06;51.38;37738.38;10533152;28;20028;-66
2023/08/28 07:31:49;;;;;;;0.00;0.00;;;;;;;-145.06;55.75;38036.91;10531961;28;20028;-66
2023/08/28 07:36:51;;;;;;;0.10;0.10;;;;;;;-145.06;60.47;38498.81;10532830;28;20032;-66
2023/08/28 07:41:51;;;;;;;0.00;0.00;;;;;;;-145.06;59.34;38182.13;10531810;28;20071;-66
2023/08/28 07:46:51;;;;;;;0.10;0.10;;;;;;;-145.06;55.30;38018.75;10528301;28;20267;-66
2023/08/28 07:51:51;;;;;;;0.10;0.10;;;;;;;-145.06;57.60;38172.03;10531399;28;20035;-66
2023/08/28 07:56:52;;;;;;;0.10;0.10;;;;;;;-145.06;62.05;38224.47;10529931;28;20032;-66
2023/08/28 08:01:52;;;;;;;0.10;0.10;;;;;;;-145.06;62.65;38387.88;10530724;28;20031;-66
2023/08/28 08:06:53;;;;;;;0.10;0.10;;;;;;;-145.06;66.03;38462.50;10532831;28;20024;-66
2023/08/28 08:11:53;;;;;;;0.00;0.00;;;;;;;-145.06;67.74;38561.34;10531007;28;20040;-66
2023/08/28 08:16:53;;;;;;;0.10;0.10;;;;;;;-145.06;70.04;38607.75;10526337;28;20039;-66
2023/08/28 08:21:53;;;;;;;0.00;0.00;;;;;;;-145.06;70.06;38740.91;10547292;28;20476;-66
2023/08/28 08:26:54;;;;;;;0.00;0.00;;;;;;;-145.06;73.61;38880.09;10532928;28;20504;-66
2023/08/28 08:31:54;;;;;;;0.00;0.00;;;;;;;-145.06;75.67;39053.63;10522673;28;20032;-66
2023/08/28 08:36:54;;;;;;;0.10;0.10;;;;;;;-145.06;78.39;38865.97;10508787;28;20055;-66
2023/08/28 08:41:55;;;;;;;0.03;0.03;;;;;;;-145.06;72.96;38668.28;10530018;28;20027;-67
2023/08/28 08:46:56;;;;;;;0.10;0.10;;;;;;;-145.06;69.93;38726.78;10524121;28;20036;-66
2023/08/28 08:52:04;;;;;;;0.00;0.00;;;;;;;-145.06;71.76;38785.28;10528598;28;20032;-66
2023/08/28 08:57:19;;;;;;;0.10;0.10;;;;;;;-145.06;70.82;38839.75;10523121;28;20032;-66
2023/08/28 09:02:20;;;;;;;0.00;0.00;;;;;;;-145.06;74.34;38926.50;10527390;28;20490;-65
2023/08/28 09:07:20;;;;;;;0.00;0.00;;;;;;;-145.06;76.14;38916.41;10529922;28;20094;-66
2023/08/28 09:12:21;;;;;;;0.00;0.00;;;;;;;-145.06;78.08;39047.56;10514562;28;20066;-66
2023/08/28 09:17:21;;;;;;;0.10;0.10;;;;;;;-145.06;82.77;39178.69;10531757;28;20458;-66
2023/08/28 09:22:25;;;;;;;0.10;0.10;;;;;;;-145.06;83.85;39225.09;10536638;28;20350;-66
2023/08/28 09:27:26;;;;;;;0.00;0.00;;;;;;;-145.06;89.83;39289.66;10539364;28;20095;-66
2023/08/28 09:32:26;;;;;;;0.10;0.10;;;;;;;-145.06;84.82;39063.69;10533761;28;20047;-66
2023/08/28 09:37:28;;;;;;;0.00;0.00;;;;;;;-145.06;76.40;38797.38;10536822;28;20123;-66
2023/08/28 09:42:28;;;;;;;0.10;0.10;;;;;;;-145.06;70.16;38619.88;10536472;28;20031;-66
2023/08/28 09:47:29;;;;;;;0.10;0.10;;;;;;;-145.06;68.12;38652.13;10536393;28;20511;-66
2023/08/28 09:52:30;;;;;;;0.10;0.10;;;;;;;-145.06;70.74;38722.75;10536114;28;20060;-66
2023/08/28 09:57:31;;;;;;;0.00;0.00;;;;;;;-145.06;74.69;38791.34;10530919;28;20039;-65
2023/08/28 10:02:33;;;;;;;0.00;0.00;;;;;;;-145.06;77.35;38906.34;10536594;28;20098;-65
2023/08/28 10:07:38;;;;;;;0.00;0.00;;;;;;;-145.06;87.71;39093.97;10529077;28;20028;-66
2023/08/28 10:12:40;;;;;;;0.00;0.00;;;;;;;-145.06;95.25;39235.19;10535463;28;20067;-67
2023/08/28 10:17:41;;;;;;;0.03;0.03;;;;;;;-145.06;99.38;39317.91;10533517;28;20478;-66
2023/08/28 10:22:44;;;;;;;0.00;0.00;;;;;;;-145.06;100.00;39390.56;10534045;28;20032;-66
2023/08/28 10:27:45;;;;;;;;;;;;;;;-145.06;100.00;39449.06;10535227;28;20306;-66
2023/08/28 10:32:45;;;;;;;0.00;0.00;;;;;;;-145.06;100.00;39420.81;10535394;28;19908;-67
2023/08/28 10:37:47;;;;;;;0.00;0.00;;;;;;;-145.06;100.00;39402.66;10534963;28;20484;-67
2023/08/28 10:42:49;;;;;;;0.00;0.00;;;;;;;-145.06;100.00;39410.72;10530171;28;20044;-67
2023/08/28 10:47:50;;;;;;;0.10;0.10;;;;;;;-145.06;100.00;39410.72;10538229;28;20031;-67
2023/08/28 10:52:58;;;;;;;0.00;0.00;;;;;;;-145.06;100.00;39378.44;10539046;28;20434;-67
2023/08/28 10:58:02;;;;;;;0.08;0.08;;;;;;;-145.06;100.00;39289.66;10538200;28;20028;-67
2023/08/28 11:03:14;;;;;;;0.00;0.00;;;;;;;-145.06;98.79;39158.53;10535593;28;20509;-67
2023/08/28 11:08:15;;;;;;;0.00;0.00;;;;;;;-145.06;92.68;39027.38;10536737;28;20032;-67
2023/08/28 11:13:21;;;;;;;0.00;0.00;;;;;;;-145.06;86.46;39069.75;10502081;23;20044;-69
2023/08/28 11:18:28;;;;;;;0.00;0.00;;;;;;;-145.06;88.63;39059.66;10513411;28;20709;-69
2023/08/28 11:23:37;;;;;;;0.00;0.00;;;;;;;-145.06;91.21;39087.91;10520064;28;20036;-69
2023/08/28 11:28:45;;;;;;;0.00;0.00;;;;;;;-145.06;96.40;39093.97;10520467;28;20029;-69
2023/08/28 11:33:49;;;;;;;0.00;0.00;;;;;;;-145.06;89.28;39001.16;10530703;28;20028;-69
2023/08/28 11:38:49;;;;;;;0.00;0.00;;;;;;;-145.06;85.00;38906.34;10495291;28;20107;-68
2023/08/28 11:43:50;;;;;;;0.00;0.00;;;;;;;-145.06;78.59;38855.91;10526306;28;20031;-68
2023/08/28 11:48:50;;;;;;;0.00;0.00;;;;;;;-145.06;78.09;38904.31;10536526;28;20036;-68
2023/08/28 11:53:50;;;;;;;0.10;0.10;;;;;;;-145.06;76.04;38934.56;10506030;28;20036;-68
2023/08/28 11:58:53;;;;;;;0.03;0.03;;;;;;;-145.06;74.57;38999.13;10531648;28;20052;-67
2023/08/28 12:04:01;;;;;;;0.00;0.00;;;;;;;-145.06;73.80;39015.28;10523734;28;20052;-67
2023/08/28 12:09:04;;;;;;;0.00;0.00;;;;;;;-145.06;72.31;39011.25;10522209;28;20044;-68
2023/08/28 12:14:18;;;;;;;0.00;0.00;;;;;;;-145.06;74.81;38991.06;10522391;28;20035;-68
2023/08/28 12:19:21;;;;;;;0.00;0.00;;;;;;;-145.06;73.98;38946.69;10511867;28;20026;-68
2023/08/28 12:24:22;;;;;;;0.00;0.00;;;;;;;-145.06;67.52;38924.50;10524954;28;20028;-67
2023/08/28 12:29:25;;;;;;;0.00;0.00;;;;;;;-145.06;61.75;38898.25;10526568;28;20320;-67
2023/08/28 12:34:30;;;;;;;0.10;0.10;;;;;;;-145.06;61.48;38954.75;10529653;28;20044;-67
2023/08/28 12:39:30;;;;;;;0.00;0.00;;;;;;;-145.06;62.35;38944.66;10524181;28;20115;-67
2023/08/28 12:44:31;;;;;;;0.00;0.00;;;;;;;-145.06;63.46;38995.09;10521902;28;20044;-67
2023/08/28 12:49:32;;;;;;;0.00;0.00;;;;;;;-145.06;65.09;39001.16;10516855;28;20431;-66
2023/08/28 12:54:32;;;;;;;0.00;0.00;;;;;;;-145.06;66.37;39027.38;10518398;28;20044;-65
2023/08/28 12:59:33;;;;;;;0.10;0.10;;;;;;;-145.06;62.56;39029.41;10518136;28;20426;-65
2023/08/28 13:04:33;;;;;;;0.10;0.10;;;;;;;-145.06;67.39;38999.13;10522947;28;20036;-67
2023/08/28 13:09:33;;;;;;;0.00;0.00;;;;;;;-145.06;64.60;38964.84;10517301;28;20032;-67
2023/08/28 13:14:34;;;;;;;0.10;0.10;;;;;;;-145.06;63.41;39023.34;10523622;28;20082;-67
2023/08/28 13:19:34;;;;;;;0.00;0.00;;;;;;;-145.06;64.36;39013.25;10531303;28;20032;-68
2023/08/28 13:24:34;;;;;;;0.00;0.00;;;;;;;-145.06;60.88;38989.06;10531224;28;20044;-66
2023/08/28 13:29:34;;;;;;;0.00;0.00;;;;;;;-145.06;63.90;38983.00;10528841;28;20388;-66
2023/08/28 13:34:35;;;;;;;0.00;0.00;;;;;;;-145.06;63.86;38942.66;10531075;28;20024;-66
2023/08/28 13:39:35;;;;;;;0.00;0.00;;;;;;;-145.06;62.44;38970.91;10531191;28;20016;-66
2023/08/28 13:44:35;;;;;;;0.03;0.03;;;;;;;-145.06;63.86;38950.72;10525016;28;20107;-67
2023/08/28 13:49:36;;;;;;;0.10;0.10;;;;;;;-145.06;64.83;38972.91;10530852;28;20028;-66
2023/08/28 13:54:36;;;;;;;0.00;0.00;;;;;;;-145.06;67.23;39011.25;10531539;28;20070;-67
2023/08/28 13:59:37;;;;;;;0.00;0.00;;;;;;;-145.06;67.95;38962.81;10527748;28;20081;-66
2023/08/28 14:04:37;;;;;;;0.03;0.03;;;;;;;-145.06;66.27;38993.09;10524729;28;20485;-67
2023/08/28 14:09:37;;;;;;;0.10;0.10;;;;;;;-145.06;65.60;39029.41;10530393;28;20032;-68
2023/08/28 14:14:38;;;;;;;0.00;0.00;;;;;;;-145.06;65.27;39065.72;10523457;28;20024;-66
2023/08/28 14:19:38;;;;;;;0.00;0.00;;;;;;;-145.06;63.81;39075.81;10525690;28;20484;-67
2023/08/28 14:24:38;;;;;;;0.00;0.00;;;;;;;-145.06;62.19;39067.72;10520905;28;20396;-67
2023/08/28 14:29:39;;;;;;;0.00;0.00;;;;;;;-145.06;61.40;39025.38;10532312;28;20495;-67
2023/08/28 14:34:39;;;;;;;0.00;0.00;;;;;;;-145.06;61.19;39035.44;10537235;28;20035;-67
2023/08/28 14:39:39;;;;;;;0.00;0.00;;;;;;;-145.06;61.93;39007.22;10536745;28;20032;-67
2023/08/28 14:44:40;;;;;;;0.00;0.00;;;;;;;-145.06;61.33;39047.56;10520098;28;20267;-70
2023/08/28 14:49:40;;;;;;;0.00;0.00;;;;;;;-145.06;62.79;39055.63;10523217;28;20477;-68
2023/08/28 14:54:40;;;;;;;0.00;0.00;;;;;;;-145.06;66.79;39063.69;10532056;28;20028;-69
2023/08/28 14:59:41;;;;;;;0.00;0.00;;;;;;;-145.06;64.87;39035.44;10522730;28;20255;-69
2023/08/28 15:04:41;;;;;;;0.00;0.00;;;;;;;-145.06;66.18;39104.06;10520276;28;20020;-69
2023/08/28 15:09:42;;;;;;;0.00;0.00;;;;;;;-145.06;66.55;39100.00;10518471;28;20033;-69
2023/08/28 15:14:42;;;;;;;0.00;0.00;;;;;;;-145.06;65.83;39091.94;10534989;28;20032;-68
2023/08/28 15:19:42;;;;;;;0.10;0.10;;;;;;;-145.06;67.96;39108.09;10531035;28;20024;-68
2023/08/28 15:24:43;;;;;;;0.00;0.00;;;;;;;-145.06;64.32;39130.28;10529714;28;20036;-67
2023/08/28 15:29:44;;;;;;;0.00;0.00;;;;;;;-145.06;62.80;39174.66;10529947;28;20028;-67
2023/08/28 15:34:45;;;;;;;0.00;0.00;;;;;;;-145.06;63.48;39128.25;10526190;28;20481;-68
2023/08/28 15:39:46;;;;;;;0.10;0.10;;;;;;;-145.06;62.98;39170.63;10529009;28;20021;-67
2023/08/28 15:44:46;;;;;;;0.00;0.00;;;;;;;-145.06;61.74;39223.09;10528750;28;20076;-67
2023/08/28 15:49:46;;;;;;;0.00;0.00;;;;;;;-145.06;64.86;39237.22;10520587;28;20545;-67
2023/08/28 15:54:47;;;;;;;0.00;0.00;;;;;;;-145.06;66.90;39208.97;10523125;28;20059;-67
2023/08/28 15:59:47;;;;;;;0.00;0.00;;;;;;;-145.06;71.04;39206.94;10529083;28;20032;-67
2023/08/28 16:04:47;;;;;;;0.10;0.10;;;;;;;-145.06;73.80;39247.31;10533968;28;20274;-66
2023/08/28 16:09:48;;;;;;;0.10;0.10;;;;;;;-145.06;74.22;39237.22;10531302;28;20043;-66
2023/08/28 16:14:48;;;;;;;0.00;0.00;;;;;;;-145.06;75.52;39227.13;10517202;28;20038;-66
2023/08/28 16:19:48;;;;;;;0.00;0.00;;;;;;;-145.06;75.20;39221.06;10532831;28;20028;-67
2023/08/28 16:24:49;;;;;;;0.07;0.07;;;;;;;-145.06;76.40;39263.44;10533548;28;20032;-66
2023/08/28 16:29:49;;;;;;;0.00;0.00;;;;;;;-145.06;76.07;39297.75;10533030;28;20031;-67
2023/08/28 16:34:49;;;;;;;0.00;0.00;;;;;;;-145.06;76.78;39364.31;10533212;28;20027;-66
2023/08/28 16:39:49;;;;;;;0.00;0.00;;;;;;;-145.06;79.37;39422.84;10533042;28;20081;-67
2023/08/28 16:44:50;;;;;;;0.00;0.00;;;;;;;-145.06;80.48;39455.13;10518518;28;20169;-66
2023/08/28 16:49:51;;;;;;;0.10;0.10;;;;;;;-145.06;83.13;39481.34;10532516;28;20028;-68
2023/08/28 16:54:51;;;;;;;0.07;0.07;;;;;;;-145.06;82.56;39495.47;10532669;28;20059;-66
2023/08/28 16:59:52;;;;;;;0.00;0.00;;;;;;;-145.06;81.33;39481.34;10532171;28;20109;-67
2023/08/28 17:04:52;;;;;;;0.00;0.00;;;;;;;-145.06;83.47;39513.63;10532424;28;20416;-68
2023/08/28 17:09:52;;;;;;;0.00;0.00;;;;;;;-145.06;83.72;39549.97;10514933;22;20050;-67
2023/08/28 17:14:52;;;;;;;0.10;0.10;;;;;;;-145.06;86.65;39566.09;10417211;28;20041;-67
2023/08/28 17:19:53;;;;;;;0.00;0.00;;;;;;;-145.06;87.16;39592.34;10399087;28;20030;-66
2023/08/28 17:24:53;;;;;;;0.00;0.00;;;;;;;-145.06;88.89;39592.34;10381010;28;20052;-67
2023/08/28 17:29:54;;;;;;;0.05;0.05;;;;;;;-145.06;89.81;39630.69;10385687;28;20274;-67
2023/08/28 17:34:54;;;;;;;0.00;0.00;;;;;;;-145.06;89.86;39664.97;10386744;28;20073;-67
2023/08/28 17:39:54;;;;;;;0.00;0.00;;;;;;;-145.06;91.75;39636.72;10380474;28;20084;-66
2023/08/28 17:44:55;;;;;;;0.10;0.10;;;;;;;-145.06;93.46;39679.09;10387670;28;20037;-67
2023/08/28 17:49:56;;;;;;;0.10;0.10;;;;;;;-145.06;94.31;39687.19;10385358;28;20110;-67
2023/08/28 17:54:57;;;;;;;0.00;0.00;;;;;;;-145.06;96.14;39737.63;10382050;28;20049;-67
2023/08/28 17:59:57;;;;;;;0.00;0.00;;;;;;;-145.06;97.04;39733.59;10374877;28;20052;-66
2023/08/28 18:04:58;;;;;;;0.00;0.00;;;;;;;-145.06;98.79;39703.31;10395718;28;20033;-66
2023/08/28 18:09:58;;;;;;;0.10;0.10;;;;;;;-145.06;98.87;39755.78;10388339;28;20277;-67
2023/08/28 18:15:00;;;;;;;0.05;0.05;;;;;;;-145.06;100.00;39773.94;10382962;28;20038;-67
2023/08/28 18:20:00;;;;;;;0.10;0.10;;;;;;;-145.06;100.00;39800.19;10375409;28;20069;-67
2023/08/28 18:25:01;;;;;;;0.10;0.10;;;;;;;-145.06;100.00;39814.31;10388001;28;20438;-67
2023/08/28 18:30:02;;;;;;;0.10;0.10;;;;;;;-145.06;100.00;39810.28;10375165;28;20034;-67
2023/08/28 18:35:03;;;;;;;0.00;0.00;;;;;;;-145.06;100.00;39850.63;10380651;28;20096;-67
2023/08/28 18:40:05;;;;;;;0.00;0.00;;;;;;;-145.06;100.00;39866.78;10373955;28;20561;-67
2023/08/28 18:45:06;;;;;;;0.10;0.10;;;;;;;-145.06;100.00;39852.66;10384115;28;20026;-68
2023/08/28 18:50:06;;;;;;;0.10;0.10;;;;;;;-145.06;100.00;39882.91;10389567;28;20038;-68
2023/08/28 18:55:07;;;;;;;0.10;0.10;;;;;;;-145.06;100.00;39852.66;10384737;28;20038;-67
2023/08/28 19:00:10;;;;;;;0.10;0.10;;;;;;;-145.06;100.00;39899.06;10374668;28;20029;-67
2023/08/28 19:05:11;;;;;;;0.00;0.00;;;;;;;-145.06;100.00;39876.84;10381551;28;20030;-67
2023/08/28 19:10:11;;;;;;;0.10;0.10;;;;;;;-145.06;100.00;39911.16;10391204;28;20029;-67
2023/08/28 19:15:11;;;;;;;0.10;0.10;;;;;;;-145.06;100.00;39899.06;10361173;28;20417;-67
2023/08/28 19:20:12;;;;;;;0.10;0.10;;;;;;;-145.06;100.00;39921.25;10393098;28;20382;-68
2023/08/28 19:25:12;;;;;;;0.10;0.10;;;;;;;-145.06;100.00;39973.72;10380416;28;20533;-67
2023/08/28 19:30:12;;;;;;;0.10;0.10;;;;;;;-145.06;100.00;39933.38;10375462;28;20025;-68
2023/08/28 19:35:13;;;;;;;0.10;0.10;;;;;;;-145.06;100.00;39949.50;10382518;28;20033;-68
2023/08/28 19:40:14;;;;;;;0.10;0.10;;;;;;;-145.06;100.00;39977.75;10374982;28;20029;-67
2023/08/28 19:45:14;;;;;;;0.10;0.10;;;;;;;-145.06;100.00;40008.03;10395556;28;20036;-67
2023/08/28 19:50:14;;;;;;;0.10;0.10;;;;;;;-145.06;100.00;39995.91;10383133;28;20503;-67
2023/08/28 19:55:15;;;;;;;0.00;0.00;;;;;;;-145.06;100.00;39975.75;10384422;28;20029;-67
2023/08/28 20:00:15;;;;;;;0.10;0.10;;;;;;;-145.06;100.00;39985.84;10387422;28;20094;-67
2023/08/28 20:05:15;;;;;;;0.10;0.10;;;;;;;-145.06;100.00;40016.09;10370765;28;20034;-67
2023/08/28 20:10:16;;;;;;;0.10;0.10;;;;;;;-145.06;100.00;40006.00;10379411;28;20042;-67
2023/08/28 20:15:16;;;;;;;0.10;0.10;;;;;;;-145.06;100.00;39981.78;10394312;28;20049;-67
2023/08/28 20:20:17;;;;;;;0.10;0.10;;;;;;;-145.06;100.00;40028.22;10383572;28;20127;-67
2023/08/28 20:25:17;;;;;;;0.10;0.10;;;;;;;-145.06;100.00;40018.13;10378093;28;20034;-67
2023/08/28 20:30:18;;;;;;;0.10;0.10;;;;;;;-145.06;100.00;40034.25;10394723;28;20021;-67
2023/08/28 20:35:18;;;;;;;0.10;0.10;;;;;;;-145.06;100.00;40040.31;10387441;28;20045;-66
2023/08/28 20:40:19;;;;;;;0.10;0.10;;;;;;;-145.06;100.00;40020.13;10389049;28;20022;-67
2023/08/28 20:45:22;;;;;;;0.10;0.10;;;;;;;-145.06;100.00;40076.66;10381052;28;20026;-67
2023/08/28 20:50:24;;;;;;;0.10;0.10;;;;;;;-145.06;100.00;40026.19;10378774;28;20030;-67
2023/08/28 20:55:24;;;;;;;0.10;0.10;;;;;;;-145.06;100.00;40080.69;10385826;28;20033;-67
2023/08/28 21:00:25;;;;;;;0.10;0.10;;;;;;;-145.06;100.00;40108.94;10385109;28;20030;-67
2023/08/28 21:05:25;;;;;;;0.00;0.00;;;;;;;-145.06;100.00;40078.66;10388104;28;20330;-67
2023/08/28 21:10:26;;;;;;;0.10;0.10;;;;;;;-145.06;100.00;40074.63;10398269;28;20037;-67
2023/08/28 21:15:27;;;;;;;0.10;0.10;;;;;;;-145.06;100.00;40066.56;10387619;28;20129;-66
2023/08/28 21:20:27;;;;;;;0.10;0.10;;;;;;;-145.06;100.00;40048.38;10385890;28;20112;-67
2023/08/28 21:25:28;;;;;;;0.10;0.10;;;;;;;-145.06;100.00;40094.81;10399905;28;20045;-67
2023/08/28 21:30:29;;;;;;;0.10;0.10;;;;;;;-145.06;100.00;40064.53;10394606;28;20130;-68
2023/08/28 21:35:29;;;;;;;0.10;0.10;;;;;;;-145.06;100.00;40084.72;10395533;28;20068;-68
2023/08/28 21:40:32;;;;;;;0.00;0.00;;;;;;;-145.06;100.00;40066.56;10385498;28;20030;-67
2023/08/28 21:45:33;;;;;;;0.10;0.10;;;;;;;-145.06;100.00;40072.59;10388767;28;20033;-67
2023/08/28 21:50:33;;;;;;;0.10;0.10;;;;;;;-145.06;100.00;40044.34;10382245;28;20028;-67
2023/08/28 21:55:38;;;;;;;0.10;0.10;;;;;;;-145.06;100.00;40068.56;10402621;28;20029;-67
2023/08/28 22:00:39;;;;;;;0.10;0.10;;;;;;;-145.06;100.00;40096.81;10388356;28;20075;-68
2023/08/28 22:05:40;;;;;;;0.10;0.10;;;;;;;-145.06;100.00;40092.78;10370751;28;20087;-67
2023/08/28 22:10:41;;;;;;;0.10;0.10;;;;;;;-145.06;100.00;40082.69;10394541;28;20025;-67
2023/08/28 22:15:42;;;;;;;0.10;0.10;;;;;;;-145.06;100.00;40080.69;10392557;28;20030;-67
2023/08/28 22:20:43;;;;;;;0.10;0.10;;;;;;;-145.06;100.00;40096.81;10392671;28;20052;-67
2023/08/28 22:25:44;;;;;;;0.00;0.00;;;;;;;-145.06;100.00;40092.78;10371597;28;20029;-67
2023/08/28 22:30:44;;;;;;;0.10;0.10;;;;;;;-145.06;100.00;40112.97;10400064;28;20478;-67
2023/08/28 22:35:44;;;;;;;0.10;0.10;;;;;;;-145.06;100.00;40064.53;10402515;28;20387;-67
2023/08/28 22:40:45;;;;;;;0.00;0.00;;;;;;;-145.06;100.00;40096.81;10409376;28;20021;-67
2023/08/28 22:45:46;;;;;;;0.10;0.10;;;;;;;-145.06;100.00;40129.13;10405729;28;20025;-67